Time;durP1;ratioP1;P1;durP2;ratioP2;P2;SDS_P1;SDS_P2;PMS_P1;PMS_P2;Temp;Humidity;BMP_temperature;BMP_pressure;BME280_temperature;BME280_humidity;BME280_pressure;Samples;Min_cycle;Max_cycle;Signal;HPM_P1;HPM_P2
2022/06/09 00:02:12;;;;;;;3.67;2.63;;;20.10;71.50;;;;;;10417235;28;20033;-57
2022/06/09 00:07:21;;;;;;;6.07;3.10;;;20.10;71.50;;;;;;10417782;28;20030;-57
2022/06/09 00:12:24;;;;;;;2.95;2.17;;;20.10;71.50;;;;;;10416296;28;20406;-57
2022/06/09 00:17:25;;;;;;;4.60;2.70;;;20.10;71.50;;;;;;10417610;28;20105;-55
2022/06/09 00:22:26;;;;;;;3.17;2.25;;;20.10;71.50;;;;;;10417153;28;20037;-56
2022/06/09 00:27:26;;;;;;;4.85;2.72;;;20.00;71.40;;;;;;10416861;28;20103;-57
2022/06/09 00:32:27;;;;;;;6.57;2.80;;;20.10;71.50;;;;;;10416911;28;20057;-57
2022/06/09 00:37:28;;;;;;;3.35;2.28;;;20.00;71.40;;;;;;10416978;28;20116;-57
2022/06/09 00:42:29;;;;;;;3.45;2.15;;;20.10;71.50;;;;;;10402204;28;20060;-57
2022/06/09 00:47:32;;;;;;;3.30;2.17;;;20.00;71.40;;;;;;10415399;28;20108;-57
2022/06/09 00:52:39;;;;;;;3.55;2.45;;;20.10;71.50;;;;;;10425987;28;20033;-57
2022/06/09 00:57:57;;;;;;;4.57;2.28;;;20.00;71.40;;;;;;10415228;28;20032;-57
2022/06/09 01:03:01;;;;;;;3.20;2.23;;;20.00;71.30;;;;;;10415493;28;20474;-57
2022/06/09 01:08:04;;;;;;;5.25;3.00;;;20.00;71.30;;;;;;10413904;28;20095;-57
2022/06/09 01:13:06;;;;;;;4.03;2.85;;;20.00;71.40;;;;;;10414383;28;20038;-57
2022/06/09 01:18:39;;;;;;;4.05;2.58;;;20.00;71.30;;;;;;10414711;28;20046;-57
2022/06/09 01:24:07;;;;;;;3.38;2.13;;;20.00;71.30;;;;;;10413733;28;20377;-57
2022/06/09 01:29:59;;;;;;;3.70;2.45;;;20.00;71.30;;;;;;10412812;28;20032;-56
2022/06/09 01:35:23;;;;;;;3.33;1.95;;;20.00;71.20;;;;;;10412953;28;20042;-57
2022/06/09 01:40:25;;;;;;;4.10;2.53;;;20.00;71.30;;;;;;10409613;28;20033;-57
2022/06/09 01:46:10;;;;;;;3.22;2.00;;;20.00;71.20;;;;;;10412584;28;20112;-56
2022/06/09 01:51:16;;;;;;;3.45;2.50;;;20.00;71.20;;;;;;10422135;28;20030;-57
2022/06/09 01:56:55;;;;;;;3.03;2.47;;;19.90;71.10;;;;;;10412007;28;20462;-55
2022/06/09 02:02:08;;;;;;;4.00;2.30;;;20.00;71.20;;;;;;10401595;28;20034;-57
2022/06/09 02:07:10;;;;;;;3.65;2.20;;;20.00;71.10;;;;;;10412981;28;20044;-57
2022/06/09 02:12:17;;;;;;;3.13;2.17;;;20.00;71.20;;;;;;10413300;28;20038;-57
2022/06/09 02:17:19;;;;;;;3.15;2.30;;;19.90;71.10;;;;;;10413000;28;20037;-57
2022/06/09 02:22:20;;;;;;;5.95;2.60;;;19.90;71.10;;;;;;10412968;28;20437;-56
2022/06/09 02:27:21;;;;;;;3.38;1.90;;;19.90;71.10;;;;;;10412847;28;20040;-56
2022/06/09 02:32:22;;;;;;;3.30;2.20;;;19.90;71.10;;;;;;10412673;28;20124;-56
2022/06/09 02:37:22;;;;;;;3.55;2.22;;;19.90;71.00;;;;;;10411605;28;20133;-57
2022/06/09 02:42:23;;;;;;;2.88;1.85;;;19.90;71.00;;;;;;10412255;28;20128;-57
2022/06/09 02:47:24;;;;;;;4.13;1.90;;;19.90;71.00;;;;;;10412395;28;20026;-57
2022/06/09 02:52:24;;;;;;;4.88;2.30;;;19.90;71.00;;;;;;10421893;28;20045;-58
2022/06/09 02:57:26;;;;;;;2.88;1.63;;;19.90;71.00;;;;;;10412191;28;20409;-57
2022/06/09 03:02:27;;;;;;;4.22;2.40;;;19.80;71.00;;;;;;10410854;28;20021;-57
2022/06/09 03:07:28;;;;;;;3.25;2.30;;;19.90;71.00;;;;;;10411874;28;20040;-57
2022/06/09 03:12:29;;;;;;;3.97;1.88;;;19.90;71.00;;;;;;10412106;28;20037;-56
2022/06/09 03:17:29;;;;;;;4.30;1.73;;;19.80;71.00;;;;;;10411088;28;20650;-57
2022/06/09 03:22:30;;;;;;;2.97;1.77;;;19.90;71.00;;;;;;10412752;28;20037;-57
2022/06/09 03:27:31;;;;;;;3.00;2.05;;;19.90;71.00;;;;;;10411942;28;20040;-56
2022/06/09 03:32:32;;;;;;;2.55;1.88;;;19.90;71.00;;;;;;10411080;28;20524;-57
2022/06/09 03:37:33;;;;;;;4.03;2.55;;;19.90;71.00;;;;;;10418043;28;20033;-57
2022/06/09 03:42:33;;;;;;;3.45;1.73;;;19.90;71.00;;;;;;10417059;28;20430;-57
2022/06/09 03:47:34;;;;;;;3.28;1.98;;;19.80;71.00;;;;;;10418667;28;20116;-57
2022/06/09 03:52:35;;;;;;;3.42;2.28;;;19.90;71.00;;;;;;10422860;28;20049;-57
2022/06/09 03:57:35;;;;;;;5.25;2.13;;;19.80;70.90;;;;;;10418279;28;20124;-56
2022/06/09 04:02:36;;;;;;;3.53;2.35;;;19.80;70.90;;;;;;10417903;28;20033;-57
2022/06/09 04:07:37;;;;;;;3.85;2.83;;;19.80;70.90;;;;;;10416645;28;20124;-57
2022/06/09 04:12:38;;;;;;;3.60;1.95;;;19.80;70.90;;;;;;10417356;28;20036;-56
2022/06/09 04:17:39;;;;;;;3.35;2.55;;;19.80;70.90;;;;;;10417461;28;20095;-57
2022/06/09 04:22:39;;;;;;;2.22;1.70;;;19.80;70.90;;;;;;10414497;28;20035;-57
2022/06/09 04:27:40;;;;;;;2.83;1.88;;;19.80;70.90;;;;;;10416015;28;20039;-56
2022/06/09 04:32:41;;;;;;;2.72;1.42;;;19.80;70.90;;;;;;10416403;28;20060;-58
2022/06/09 04:38:00;;;;;;;3.80;1.70;;;19.80;70.80;;;;;;10414783;28;20048;-59
2022/06/09 04:43:04;;;;;;;8.02;2.15;;;19.80;70.80;;;;;;10414626;28;20025;-59
2022/06/09 04:48:06;;;;;;;7.82;2.20;;;19.80;71.10;;;;;;10404550;28;20030;-57
2022/06/09 04:53:09;;;;;;;8.85;2.72;;;19.80;71.50;;;;;;10415578;28;20052;-57
2022/06/09 04:58:09;;;;;;;9.40;2.83;;;19.90;71.70;;;;;;10414174;28;20462;-54
2022/06/09 05:03:13;;;;;;;7.53;2.50;;;19.90;72.20;;;;;;10424356;28;20037;-56
2022/06/09 05:08:14;;;;;;;12.00;2.95;;;19.90;72.60;;;;;;10413173;28;20041;-54
2022/06/09 05:13:16;;;;;;;6.65;2.38;;;19.90;72.70;;;;;;10414307;28;20033;-57
2022/06/09 05:18:19;;;;;;;8.23;2.58;;;20.00;73.00;;;;;;10414460;28;20034;-56
2022/06/09 05:23:20;;;;;;;9.50;3.00;;;20.00;72.70;;;;;;10414059;28;20076;-57
2022/06/09 05:28:22;;;;;;;12.68;2.63;;;20.00;72.90;;;;;;10412442;28;20033;-58
2022/06/09 05:33:23;;;;;;;11.55;3.13;;;20.00;72.90;;;;;;10412506;28;20054;-58
2022/06/09 05:49:04;;;;;;;12.20;2.53;;;20.00;72.70;;;;;;10418511;28;19917;-58
2022/06/09 05:54:05;;;;;;;15.18;4.20;;;20.00;72.80;;;;;;10410293;28;20025;-59
2022/06/09 05:59:05;;;;;;;12.00;3.05;;;19.90;73.60;;;;;;10410867;28;20429;-59
2022/06/09 06:04:08;;;;;;;10.07;2.92;;;19.90;73.10;;;;;;10409427;28;20087;-59
2022/06/09 06:09:21;;;;;;;14.20;2.90;;;19.90;72.90;;;;;;10411668;28;20109;-60
2022/06/09 06:14:23;;;;;;;17.52;4.18;;;19.90;73.00;;;;;;10410500;28;20504;-58
2022/06/09 06:19:24;;;;;;;13.40;3.25;;;19.90;72.60;;;;;;10410337;28;20026;-59
2022/06/09 06:24:25;;;;;;;9.82;2.90;;;19.90;72.60;;;;;;10410651;28;20029;-58
2022/06/09 06:29:27;;;;;;;10.30;2.42;;;19.80;72.60;;;;;;10410979;28;20056;-60
2022/06/09 06:34:28;;;;;;;10.77;2.50;;;19.80;72.30;;;;;;10403458;28;20057;-59
2022/06/09 06:39:29;;;;;;;11.40;3.53;;;19.80;72.60;;;;;;10411783;28;20116;-59
2022/06/09 06:44:30;;;;;;;10.68;2.97;;;19.90;72.50;;;;;;10410911;28;20108;-59
2022/06/09 06:49:30;;;;;;;11.82;2.83;;;19.80;72.40;;;;;;10422051;28;20025;-59
2022/06/09 06:54:31;;;;;;;9.23;2.42;;;19.90;72.50;;;;;;10410823;28;20426;-59
2022/06/09 06:59:32;;;;;;;9.48;3.03;;;19.90;72.50;;;;;;10409293;28;20482;-59
2022/06/09 07:04:33;;;;;;;9.80;2.63;;;19.80;72.50;;;;;;10408969;28;20478;-60
2022/06/09 07:09:34;;;;;;;8.95;2.33;;;19.90;72.50;;;;;;10410248;28;20040;-59
2022/06/09 07:14:35;;;;;;;6.28;2.30;;;19.80;72.50;;;;;;10417016;28;20029;-58
2022/06/09 07:19:36;;;;;;;6.00;2.40;;;19.80;72.50;;;;;;10419227;28;20053;-59
2022/06/09 07:24:36;;;;;;;6.43;1.85;;;19.90;72.50;;;;;;10419158;28;20033;-59
2022/06/09 07:29:37;;;;;;;6.85;2.22;;;19.90;72.40;;;;;;10419057;28;20436;-59
2022/06/09 07:34:38;;;;;;;7.07;2.47;;;19.90;72.30;;;;;;10417084;28;20054;-60
2022/06/09 07:39:39;;;;;;;5.13;2.08;;;19.90;72.20;;;;;;10400883;28;20037;-59
2022/06/09 07:44:39;;;;;;;6.45;2.42;;;19.90;72.30;;;;;;10417179;28;20105;-60
2022/06/09 07:49:40;;;;;;;6.07;1.90;;;19.90;72.20;;;;;;10426919;28;20029;-59
2022/06/09 07:54:41;;;;;;;8.38;2.47;;;20.00;72.20;;;;;;10400308;28;20036;-60
2022/06/09 07:59:42;;;;;;;9.10;2.53;;;19.90;72.10;;;;;;10417947;28;20030;-60
2022/06/09 08:04:43;;;;;;;6.22;1.83;;;20.00;72.10;;;;;;10417902;28;20112;-59
2022/06/09 08:09:43;;;;;;;5.53;1.80;;;19.90;72.10;;;;;;10417222;28;20029;-59
2022/06/09 08:14:44;;;;;;;6.30;2.10;;;20.00;72.10;;;;;;10416049;28;20025;-59
2022/06/09 08:19:47;;;;;;;6.47;1.60;;;20.00;72.10;;;;;;10415435;28;20104;-59
2022/06/09 08:24:48;;;;;;;4.43;1.65;;;19.90;72.10;;;;;;10417268;28;20030;-59
2022/06/09 08:29:49;;;;;;;6.75;2.13;;;19.90;72.20;;;;;;10416865;28;20029;-60
2022/06/09 08:34:50;;;;;;;4.70;1.70;;;19.90;72.20;;;;;;10431540;28;20045;-59
2022/06/09 08:39:50;;;;;;;4.15;1.80;;;19.90;72.20;;;;;;10415026;28;20027;-60
2022/06/09 08:45:23;;;;;;;3.88;1.83;;;19.90;72.20;;;;;;10414831;28;20091;-59
2022/06/09 08:50:34;;;;;;;2.85;1.50;;;19.90;72.30;;;;;;10424242;28;20515;-59
2022/06/09 08:55:52;;;;;;;4.15;1.75;;;19.90;72.20;;;;;;10414209;28;20083;-59
2022/06/09 09:01:10;;;;;;;3.72;1.83;;;19.90;72.10;;;;;;10414831;28;20405;-59
2022/06/09 09:06:35;;;;;;;4.10;1.83;;;19.90;72.10;;;;;;10415159;28;20362;-59
2022/06/09 09:12:09;;;;;;;4.25;1.52;;;19.90;72.10;;;;;;10413973;28;20112;-58
2022/06/09 09:17:36;;;;;;;4.38;1.50;;;19.90;72.30;;;;;;10414566;28;20034;-58
2022/06/09 09:22:53;;;;;;;4.20;1.75;;;19.90;72.10;;;;;;10414687;28;20028;-58
2022/06/09 09:28:15;;;;;;;3.22;1.52;;;19.90;72.30;;;;;;10414456;28;20105;-59
2022/06/09 09:33:18;;;;;;;3.25;1.50;;;19.90;72.10;;;;;;10412083;28;20508;-58
2022/06/09 09:38:20;;;;;;;3.35;1.60;;;19.90;72.10;;;;;;10412715;28;20065;-58
2022/06/09 09:43:26;;;;;;;3.05;1.60;;;19.90;72.10;;;;;;10412552;28;20033;-59
2022/06/09 09:48:39;;;;;;;3.75;1.40;;;19.90;72.10;;;;;;10419120;28;20103;-59
2022/06/09 09:53:56;;;;;;;3.05;1.83;;;19.90;72.10;;;;;;10414303;28;20041;-59
2022/06/09 09:59:00;;;;;;;2.75;1.40;;;19.90;72.10;;;;;;10411974;28;20609;-59
2022/06/09 10:09:50;;;;;;;8.32;1.95;;;20.00;72.00;;;;;;10413632;28;20034;-58
2022/06/09 10:15:09;;;;;;;4.80;2.10;;;19.90;72.00;;;;;;10411774;28;20108;-59
2022/06/09 10:20:43;;;;;;;3.22;1.60;;;19.90;72.10;;;;;;10412415;28;20029;-60
2022/06/09 10:26:15;;;;;;;3.33;1.13;;;19.90;72.10;;;;;;10427544;28;20029;-58
2022/06/09 10:31:53;;;;;;;3.05;1.42;;;19.90;72.10;;;;;;10411381;28;20060;-59
2022/06/09 10:37:40;;;;;;;5.82;1.80;;;19.90;72.10;;;;;;10412116;28;20042;-58
2022/06/09 10:43:19;;;;;;;1.48;1.23;;;19.90;72.00;;;;;;10412085;28;20037;-58
2022/06/09 11:00:36;;;;;;;3.85;1.73;;;20.00;72.00;;;;;;10419255;28;20041;-59
2022/06/09 11:06:02;;;;;;;5.03;1.80;;;20.00;71.90;;;;;;10418043;28;20041;-58
2022/06/09 11:11:46;;;;;;;4.40;2.13;;;20.10;71.70;;;;;;10419776;28;20421;-59
2022/06/09 11:17:24;;;;;;;3.72;1.65;;;20.00;71.70;;;;;;10418295;28;20379;-59
2022/06/09 11:22:56;;;;;;;3.50;1.35;;;20.10;71.40;;;;;;10418183;28;20032;-58
2022/06/09 11:28:26;;;;;;;1.70;1.35;;;20.10;71.40;;;;;;10418927;28;20026;-60
2022/06/09 11:33:45;;;;;;;;;;;20.10;71.30;;;;;;10417865;28;20062;-58
2022/06/09 11:39:09;;;;;;;2.85;2.05;;;20.00;71.30;;;;;;10401265;28;20361;-60
2022/06/09 11:44:30;;;;;;;8.80;1.95;;;20.00;71.20;;;;;;10404102;28;20087;-59
2022/06/09 11:49:50;;;;;;;3.65;2.13;;;20.10;71.20;;;;;;10427587;28;20033;-59
2022/06/09 11:54:54;;;;;;;;;;;20.00;71.10;;;;;;10414840;28;20025;-60
2022/06/09 12:00:23;;;;;;;3.35;1.77;;;20.10;71.00;;;;;;10406596;28;19928;-59
2022/06/09 12:05:55;;;;;;;4.47;1.98;;;20.20;70.80;;;;;;10414419;28;20028;-58
2022/06/09 12:11:10;;;;;;;2.60;1.92;;;20.30;70.70;;;;;;10403643;28;20051;-59
2022/06/09 12:17:01;;;;;;;2.80;1.75;;;20.30;70.50;;;;;;10416153;28;20025;-59
2022/06/09 12:22:33;;;;;;;3.45;1.42;;;20.30;70.40;;;;;;10413417;28;20026;-59
2022/06/09 12:27:37;;;;;;;3.17;1.50;;;20.30;70.20;;;;;;10431639;28;20033;-59
2022/06/09 12:32:49;;;;;;;2.05;1.33;;;20.40;70.20;;;;;;10416062;28;20046;-60
2022/06/09 12:37:57;;;;;;;2.72;1.48;;;20.40;70.20;;;;;;10415213;28;20041;-58
2022/06/09 12:43:04;;;;;;;2.50;1.55;;;20.40;70.10;;;;;;10415298;28;20106;-59
2022/06/09 12:48:16;;;;;;;2.38;1.85;;;20.40;70.20;;;;;;10418592;28;20051;-60
2022/06/09 12:53:29;;;;;;;2.95;1.73;;;20.30;70.40;;;;;;10420078;28;20033;-59
2022/06/09 12:58:42;;;;;;;4.13;1.60;;;20.30;70.40;;;;;;10414571;28;20069;-59
2022/06/09 13:04:05;;;;;;;4.18;1.70;;;20.30;70.60;;;;;;10414267;28;20061;-58
2022/06/09 13:09:38;;;;;;;2.05;1.73;;;20.30;70.60;;;;;;10429440;28;20125;-58
2022/06/09 13:14:40;;;;;;;1.65;1.20;;;20.20;70.60;;;;;;10397301;28;20037;-59
2022/06/09 13:19:46;;;;;;;1.70;1.10;;;20.20;70.60;;;;;;10413342;28;20038;-59
2022/06/09 13:24:46;;;;;;;2.15;1.50;;;20.20;70.70;;;;;;10414634;28;20040;-59
2022/06/09 13:30:28;;;;;;;3.13;1.50;;;20.20;70.80;;;;;;10413142;28;20034;-59
2022/06/09 13:35:41;;;;;;;1.70;1.30;;;20.20;70.60;;;;;;10412710;28;20140;-58
2022/06/09 13:40:52;;;;;;;1.98;1.48;;;20.20;70.60;;;;;;10412605;28;20061;-59
2022/06/09 13:46:10;;;;;;;2.17;1.60;;;20.20;70.50;;;;;;10400713;28;20108;-59
2022/06/09 13:51:33;;;;;;;2.00;1.30;;;20.30;70.50;;;;;;10422187;28;20029;-58
2022/06/09 13:56:34;;;;;;;2.25;1.40;;;20.20;70.50;;;;;;10413684;28;20513;-58
2022/06/09 14:01:35;;;;;;;2.47;1.40;;;20.20;70.60;;;;;;10429397;28;20032;-59
2022/06/09 14:06:36;;;;;;;3.00;1.77;;;20.20;70.70;;;;;;10412795;28;20047;-59
2022/06/09 14:11:37;;;;;;;2.30;2.05;;;20.20;70.70;;;;;;10412953;28;20033;-59
2022/06/09 14:16:43;;;;;;;2.85;1.38;;;20.20;71.20;;;;;;10395140;28;20036;-59
2022/06/09 14:21:45;;;;;;;3.35;1.60;;;20.20;70.60;;;;;;10411510;28;20461;-59
2022/06/09 14:26:49;;;;;;;1.70;1.23;;;20.30;70.60;;;;;;10411499;28;20130;-59
2022/06/09 14:31:49;;;;;;;2.25;1.63;;;20.30;70.50;;;;;;10412814;28;20034;-59
2022/06/09 14:36:51;;;;;;;1.70;1.50;;;20.30;70.50;;;;;;10412552;28;20518;-59
2022/06/09 14:41:52;;;;;;;2.70;1.60;;;20.30;70.50;;;;;;10412178;28;20053;-58
2022/06/09 14:46:54;;;;;;;3.00;1.40;;;20.30;70.50;;;;;;10406377;28;20086;-59
2022/06/09 14:51:55;;;;;;;2.25;1.30;;;20.20;70.40;;;;;;10411268;28;20120;-59
2022/06/09 14:57:00;;;;;;;2.75;1.50;;;20.30;69.50;;;;;;10425408;28;20060;-60
2022/06/09 15:02:00;;;;;;;5.18;2.15;;;20.40;69.10;;;;;;10410593;28;20026;-58
2022/06/09 15:07:01;;;;;;;2.72;1.52;;;20.30;69.10;;;;;;10414723;28;20037;-58
2022/06/09 15:12:02;;;;;;;2.25;1.50;;;20.30;69.60;;;;;;10409471;28;20026;-58
2022/06/09 15:17:03;;;;;;;2.65;1.63;;;20.30;70.10;;;;;;10408341;28;20063;-58
2022/06/09 15:22:04;;;;;;;3.63;2.00;;;20.30;70.10;;;;;;10407351;28;20050;-58
2022/06/09 15:27:05;;;;;;;3.53;1.33;;;20.20;70.00;;;;;;10408677;28;20033;-58
2022/06/09 15:32:07;;;;;;;2.60;1.38;;;20.30;70.10;;;;;;10415654;28;20268;-59
2022/06/09 15:37:08;;;;;;;1.85;1.63;;;20.20;70.10;;;;;;10416704;28;20107;-60
2022/06/09 15:42:10;;;;;;;2.45;1.58;;;20.30;69.90;;;;;;10405349;28;20026;-61
2022/06/09 15:47:10;;;;;;;5.10;2.00;;;20.30;69.60;;;;;;10416872;28;20033;-59
2022/06/09 15:52:11;;;;;;;4.78;2.20;;;20.20;69.80;;;;;;10426955;28;20477;-59
2022/06/09 15:57:12;;;;;;;5.13;1.60;;;20.20;68.90;;;;;;10418135;28;20478;-57
2022/06/09 16:02:13;;;;;;;6.05;2.10;;;20.30;69.20;;;;;;10416641;28;20038;-60
2022/06/09 16:07:20;;;;;;;8.02;2.42;;;20.30;69.30;;;;;;10416775;28;20028;-60
2022/06/09 16:12:20;;;;;;;6.32;2.17;;;20.40;69.30;;;;;;10400376;28;20025;-60
2022/06/09 16:17:21;;;;;;;5.55;2.05;;;20.40;68.50;;;;;;10417280;28;20545;-61
2022/06/09 16:22:22;;;;;;;5.72;2.67;;;20.40;69.00;;;;;;10397745;28;20061;-60
2022/06/09 16:27:22;;;;;;;7.82;2.50;;;20.40;68.50;;;;;;10414558;28;20448;-57
2022/06/09 16:32:23;;;;;;;7.95;2.58;;;20.60;70.70;;;;;;10417737;28;20073;-57
2022/06/09 16:37:24;;;;;;;13.48;3.17;;;20.70;69.80;;;;;;10416197;28;20029;-59
2022/06/09 16:42:25;;;;;;;11.50;2.78;;;20.80;69.40;;;;;;10415924;28;20126;-59
2022/06/09 16:47:26;;;;;;;21.42;3.83;;;20.80;69.30;;;;;;10414682;28;20082;-60
2022/06/09 16:52:31;;;;;;;17.60;3.22;;;20.70;69.20;;;;;;10416922;28;20033;-58
2022/06/09 16:57:32;;;;;;;15.15;3.45;;;20.70;68.80;;;;;;10413745;28;20037;-57
2022/06/09 17:02:33;;;;;;;14.23;2.83;;;20.70;68.80;;;;;;10414507;28;20091;-58
2022/06/09 17:07:34;;;;;;;13.80;3.33;;;20.70;68.30;;;;;;10415071;28;20523;-58
2022/06/09 17:12:35;;;;;;;12.25;3.20;;;20.60;68.60;;;;;;10414456;28;20044;-57
2022/06/09 17:17:37;;;;;;;10.38;2.97;;;20.60;68.80;;;;;;10414111;28;20034;-58
2022/06/09 17:22:39;;;;;;;9.15;3.60;;;20.60;67.90;;;;;;10411327;28;20041;-58
2022/06/09 17:27:39;;;;;;;7.35;2.97;;;20.50;68.60;;;;;;10409628;28;20033;-58
2022/06/09 17:32:41;;;;;;;14.05;3.53;;;20.50;68.70;;;;;;10401094;28;20121;-57
2022/06/09 17:37:42;;;;;;;12.13;3.67;;;20.50;68.80;;;;;;10413057;28;20493;-58
2022/06/09 17:42:43;;;;;;;6.88;3.60;;;20.50;68.80;;;;;;10409836;28;20021;-58
2022/06/09 17:47:44;;;;;;;6.70;2.50;;;20.50;68.40;;;;;;10427111;28;20037;-58
2022/06/09 17:52:47;;;;;;;4.63;2.92;;;20.60;67.80;;;;;;10413973;28;20044;-58
2022/06/09 17:57:50;;;;;;;7.88;2.97;;;20.60;68.30;;;;;;10395859;28;20099;-58
2022/06/09 18:02:53;;;;;;;6.55;3.05;;;20.60;68.40;;;;;;10411009;28;20404;-60
2022/06/09 18:07:55;;;;;;;7.45;2.53;;;20.50;68.50;;;;;;10396677;28;20037;-60
2022/06/09 18:12:57;;;;;;;9.07;3.17;;;20.60;68.50;;;;;;10411906;28;20040;-58
2022/06/09 18:17:59;;;;;;;8.70;3.53;;;20.50;68.50;;;;;;10412778;28;20035;-59
2022/06/09 18:23:02;;;;;;;8.82;2.47;;;20.50;68.50;;;;;;10410953;28;20103;-60
2022/06/09 18:28:05;;;;;;;8.68;2.92;;;20.50;68.40;;;;;;10413410;28;20064;-60
2022/06/09 18:33:06;;;;;;;4.80;2.63;;;20.50;68.30;;;;;;10410940;28;20053;-60
2022/06/09 18:38:08;;;;;;;6.22;2.50;;;20.50;68.30;;;;;;10411843;28;20037;-60
2022/06/09 18:43:12;;;;;;;4.10;2.00;;;20.50;68.20;;;;;;10412884;28;20108;-60
2022/06/09 18:48:16;;;;;;;5.95;2.30;;;20.50;68.20;;;;;;10417097;28;20047;-60
2022/06/09 18:53:18;;;;;;;6.10;2.05;;;20.50;67.80;;;;;;10416549;28;20445;-59
2022/06/09 18:58:21;;;;;;;6.25;2.38;;;20.50;67.90;;;;;;10412128;28;20045;-57
2022/06/09 19:03:28;;;;;;;7.22;1.98;;;20.60;68.40;;;;;;10411807;28;20018;-59
2022/06/09 19:08:31;;;;;;;5.68;2.10;;;20.50;68.50;;;;;;10419694;28;20033;-58
2022/06/09 19:13:34;;;;;;;8.45;2.28;;;20.50;68.60;;;;;;10420258;28;20123;-57
2022/06/09 19:18:35;;;;;;;15.35;3.00;;;20.50;69.00;;;;;;10419999;28;20359;-58
2022/06/09 19:23:35;;;;;;;5.20;2.03;;;20.50;68.90;;;;;;10419540;28;20025;-58
2022/06/09 19:28:36;;;;;;;4.20;2.25;;;20.50;68.70;;;;;;10419965;28;20036;-59
2022/06/09 19:33:37;;;;;;;6.70;2.95;;;20.60;68.40;;;;;;10417327;28;20057;-58
2022/06/09 19:38:39;;;;;;;8.07;1.65;;;20.50;68.00;;;;;;10416382;28;20044;-59
2022/06/09 19:43:40;;;;;;;3.40;2.00;;;20.50;68.20;;;;;;10415632;28;20073;-59
2022/06/09 19:48:40;;;;;;;6.00;1.80;;;20.50;68.30;;;;;;10423124;28;20033;-59
2022/06/09 19:53:41;;;;;;;3.33;1.98;;;20.50;68.40;;;;;;10415457;28;20041;-59
2022/06/09 19:58:42;;;;;;;4.13;2.35;;;20.50;68.50;;;;;;10414309;28;20040;-59
2022/06/09 20:03:44;;;;;;;7.53;1.90;;;20.50;68.50;;;;;;10415280;28;20021;-59
2022/06/09 20:08:46;;;;;;;4.22;2.25;;;20.50;68.50;;;;;;10417150;28;20028;-59
2022/06/09 20:13:47;;;;;;;2.55;1.83;;;20.50;68.50;;;;;;10416068;28;20034;-59
2022/06/09 20:18:49;;;;;;;5.65;2.35;;;20.50;68.50;;;;;;10415918;28;20439;-58
2022/06/09 20:23:51;;;;;;;6.05;2.08;;;20.50;68.50;;;;;;10415687;28;20413;-59
2022/06/09 20:28:53;;;;;;;3.58;2.00;;;20.50;68.70;;;;;;10413533;28;20128;-59
2022/06/09 20:33:57;;;;;;;4.38;1.60;;;20.50;68.60;;;;;;10417237;28;20124;-59
2022/06/09 20:38:59;;;;;;;3.58;2.55;;;20.50;68.70;;;;;;10416891;28;20041;-59
2022/06/09 20:44:00;;;;;;;2.75;1.80;;;20.50;68.60;;;;;;10402517;28;20026;-59
2022/06/09 20:49:09;;;;;;;3.38;1.83;;;20.50;68.60;;;;;;10425480;28;20056;-59
2022/06/09 20:54:11;;;;;;;4.18;2.00;;;20.50;68.60;;;;;;10415192;28;20037;-58
2022/06/09 20:59:14;;;;;;;2.95;1.60;;;20.50;68.50;;;;;;10397669;28;20049;-59
2022/06/09 21:04:15;;;;;;;5.32;1.55;;;20.50;68.50;;;;;;10416092;28;20032;-58
2022/06/09 21:09:16;;;;;;;2.50;1.60;;;20.50;68.50;;;;;;10414625;28;20060;-59
2022/06/09 21:19:36;;;;;;;4.25;1.65;;;20.50;68.50;;;;;;10414440;28;20042;-58
2022/06/09 21:24:37;;;;;;;5.38;2.72;;;20.50;68.40;;;;;;10415328;28;20449;-59
2022/06/09 21:29:38;;;;;;;4.57;1.88;;;20.50;68.40;;;;;;10414251;28;20029;-59
2022/06/09 21:34:39;;;;;;;5.18;2.22;;;20.50;68.40;;;;;;10414788;28;20050;-58
2022/06/09 21:39:39;;;;;;;2.38;1.50;;;20.50;68.30;;;;;;10414719;28;20037;-58
2022/06/09 21:44:40;;;;;;;2.42;1.27;;;20.50;68.20;;;;;;10401018;28;20114;-58
2022/06/09 21:49:42;;;;;;;3.35;1.83;;;20.50;68.20;;;;;;10423789;28;20117;-58
2022/06/09 21:54:43;;;;;;;2.90;1.35;;;20.40;68.20;;;;;;10413102;28;20497;-59
2022/06/09 21:59:43;;;;;;;3.88;2.15;;;20.40;68.20;;;;;;10414025;28;20125;-59
2022/06/09 22:04:44;;;;;;;2.55;1.48;;;20.50;68.20;;;;;;10413543;28;20561;-58
2022/06/09 22:09:45;;;;;;;4.15;1.65;;;20.40;68.20;;;;;;10413528;28;20124;-59
2022/06/09 22:14:45;;;;;;;3.67;1.52;;;20.50;68.20;;;;;;10413708;28;20489;-58
2022/06/09 22:19:46;;;;;;;3.33;1.60;;;20.50;68.20;;;;;;10413474;28;20080;-59
2022/06/09 22:24:47;;;;;;;2.17;1.50;;;20.40;68.10;;;;;;10428741;28;20466;-59
2022/06/09 22:29:48;;;;;;;4.45;1.80;;;20.40;68.10;;;;;;10413251;28;20076;-59
2022/06/09 22:34:48;;;;;;;2.00;1.50;;;20.40;68.10;;;;;;10413087;28;20076;-59
2022/06/09 22:39:49;;;;;;;3.70;1.30;;;20.40;68.00;;;;;;10417353;28;20072;-58
2022/06/09 22:44:50;;;;;;;4.05;1.75;;;20.40;67.90;;;;;;10424889;28;20767;-58
2022/06/09 22:49:56;;;;;;;2.40;1.92;;;20.40;67.90;;;;;;10435625;28;20084;-60
2022/06/09 23:00:23;;;;;;;3.17;1.52;;;20.40;68.00;;;;;;10424986;28;20128;-58
2022/06/09 23:05:25;;;;;;;7.37;1.70;;;20.40;67.90;;;;;;10424437;28;20025;-59
2022/06/09 23:10:26;;;;;;;3.15;1.42;;;20.40;67.90;;;;;;10424637;28;20025;-59
2022/06/09 23:15:29;;;;;;;4.03;2.28;;;20.40;67.90;;;;;;10425449;28;20037;-59
2022/06/09 23:20:34;;;;;;;2.25;1.50;;;20.40;67.90;;;;;;10424395;28;20109;-59
2022/06/09 23:25:37;;;;;;;3.15;1.52;;;20.40;67.90;;;;;;10425279;28;20040;-59
2022/06/09 23:30:38;;;;;;;1.65;1.10;;;20.40;67.90;;;;;;10425417;28;20128;-58
2022/06/09 23:35:40;;;;;;;3.10;1.42;;;20.40;67.80;;;;;;10410643;28;20148;-59
2022/06/09 23:40:45;;;;;;;2.47;1.35;;;20.40;67.80;;;;;;10425243;28;20033;-58
2022/06/09 23:45:49;;;;;;;3.53;1.38;;;20.30;67.60;;;;;;10415488;28;20022;-58
2022/06/09 23:50:56;;;;;;;2.08;1.05;;;20.30;67.60;;;;;;10431174;28;20033;-59
2022/06/09 23:56:00;;;;;;;1.95;1.50;;;20.40;67.70;;;;;;10418347;28;20494;-59
